26 minutes ago
Runway Headwind Crosswind Length
6 kt 4 kt 9,701 ft
2 kt 7 kt 6,558 ft
METAR EHLW 202055Z AUTO 02008KT 350V050 //// // BKN013 OVC015 15/12 Q1010 RE//

METAR definition | Embed

METAR Leeuwarden AB

Leeuwarden AB is a midsized airport in Leeuwarden, The Netherlands. The airport has 2 runways: 5/23 (9,701 ft) and 9/27

This report was made for Leeuwarden AB on June 20, 2021 10:55 pm, local time.

Airport observations

The wind is from direction northnortheast (020°) with a speed of 8 kt. The wind direction varies between north (350°) and northeast (050°).

The temperature and wind chill are 59 °F. The dew point is 54 °F, the relative humidity is 82%. The air pressure at sea level is 29.83 inHg (QNH).

Daylight period

Today the sun rises at 5:09 am and sets at 10:08 pm. This applies to Leeuwarden AB, the universal daylight period may be different. The difference between the local time and UTC is +2 hour. Daylight saving time is currently in progress.

Historical data

Donate

Will you help us to keep Metar-Taf.com running?
Your contribution helps further development of the site and to pay for the expenses.

No more ads

Are you donating $ 5 or more? Then we'll never show you ads again, as a token of our eternal gratitude!
Log in before you donate

Do you want the flying weather of Leeuwarden AB on your website? Read more   Free!